sensor_id;sensor_type;location;lat;lon;timestamp;P1;durP1;ratioP1;P2;durP2;ratioP2
13943;SDS011;7044;53.286;8.534;2024-01-16T00:00:59;2.60;;;0.80;;
13943;SDS011;7044;53.286;8.534;2024-01-16T00:03:27;3.53;;;0.70;;
13943;SDS011;7044;53.286;8.534;2024-01-16T00:05:54;1.10;;;0.80;;
13943;SDS011;7044;53.286;8.534;2024-01-16T00:08:21;0.60;;;0.60;;
13943;SDS011;7044;53.286;8.534;2024-01-16T00:10:48;1.17;;;0.83;;
13943;SDS011;7044;53.286;8.534;2024-01-16T00:13:16;0.70;;;0.67;;
13943;SDS011;7044;53.286;8.534;2024-01-16T00:15:43;0.60;;;0.30;;
13943;SDS011;7044;53.286;8.534;2024-01-16T00:18:10;1.23;;;0.60;;
13943;SDS011;7044;53.286;8.534;2024-01-16T00:20:38;1.70;;;0.50;;
13943;SDS011;7044;53.286;8.534;2024-01-16T00:23:05;0.97;;;0.60;;
13943;SDS011;7044;53.286;8.534;2024-01-16T00:25:31;0.93;;;0.60;;
13943;SDS011;7044;53.286;8.534;2024-01-16T00:27:58;0.80;;;0.40;;
13943;SDS011;7044;53.286;8.534;2024-01-16T00:30:25;0.63;;;0.40;;
13943;SDS011;7044;53.286;8.534;2024-01-16T00:32:52;1.10;;;0.77;;
13943;SDS011;7044;53.286;8.534;2024-01-16T00:35:19;1.27;;;0.77;;
13943;SDS011;7044;53.286;8.534;2024-01-16T00:37:47;0.70;;;0.50;;
13943;SDS011;7044;53.286;8.534;2024-01-16T00:40:14;2.67;;;0.47;;
13943;SDS011;7044;53.286;8.534;2024-01-16T00:42:41;2.73;;;0.80;;
13943;SDS011;7044;53.286;8.534;2024-01-16T00:45:08;0.53;;;0.47;;
13943;SDS011;7044;53.286;8.534;2024-01-16T00:47:34;3.03;;;0.40;;
13943;SDS011;7044;53.286;8.534;2024-01-16T00:50:01;0.67;;;0.50;;
13943;SDS011;7044;53.286;8.534;2024-01-16T00:52:28;1.13;;;0.40;;
13943;SDS011;7044;53.286;8.534;2024-01-16T00:54:57;1.80;;;0.30;;
13943;SDS011;7044;53.286;8.534;2024-01-16T00:57:24;0.60;;;0.60;;
13943;SDS011;7044;53.286;8.534;2024-01-16T00:59:51;0.40;;;0.40;;
13943;SDS011;7044;53.286;8.534;2024-01-16T01:02:18;0.43;;;0.40;;
13943;SDS011;7044;53.286;8.534;2024-01-16T01:04:45;2.40;;;0.53;;
13943;SDS011;7044;53.286;8.534;2024-01-16T01:07:13;1.47;;;0.43;;
13943;SDS011;7044;53.286;8.534;2024-01-16T01:09:40;1.43;;;0.50;;
13943;SDS011;7044;53.286;8.534;2024-01-16T01:12:08;0.40;;;0.40;;
13943;SDS011;7044;53.286;8.534;2024-01-16T01:14:35;2.43;;;0.80;;
13943;SDS011;7044;53.286;8.534;2024-01-16T01:17:02;0.60;;;0.60;;
13943;SDS011;7044;53.286;8.534;2024-01-16T01:19:30;0.53;;;0.53;;
13943;SDS011;7044;53.286;8.534;2024-01-16T01:21:57;4.60;;;0.50;;
13943;SDS011;7044;53.286;8.534;2024-01-16T01:24:24;0.20;;;0.20;;
13943;SDS011;7044;53.286;8.534;2024-01-16T01:26:51;1.43;;;0.47;;
13943;SDS011;7044;53.286;8.534;2024-01-16T01:29:19;2.00;;;0.60;;
13943;SDS011;7044;53.286;8.534;2024-01-16T01:31:46;1.17;;;0.47;;
13943;SDS011;7044;53.286;8.534;2024-01-16T01:34:14;0.40;;;0.37;;
13943;SDS011;7044;53.286;8.534;2024-01-16T01:36:41;1.67;;;0.37;;
13943;SDS011;7044;53.286;8.534;2024-01-16T01:39:08;0.80;;;0.40;;
13943;SDS011;7044;53.286;8.534;2024-01-16T01:41:36;5.00;;;0.60;;
13943;SDS011;7044;53.286;8.534;2024-01-16T01:44:04;4.40;;;0.33;;
13943;SDS011;7044;53.286;8.534;2024-01-16T01:46:33;1.00;;;0.33;;
13943;SDS011;7044;53.286;8.534;2024-01-16T01:49:01;1.87;;;0.70;;
13943;SDS011;7044;53.286;8.534;2024-01-16T01:51:29;0.80;;;0.30;;
13943;SDS011;7044;53.286;8.534;2024-01-16T01:53:56;0.53;;;0.47;;
13943;SDS011;7044;53.286;8.534;2024-01-16T01:56:24;0.30;;;0.30;;
13943;SDS011;7044;53.286;8.534;2024-01-16T01:58:53;3.80;;;0.40;;
13943;SDS011;7044;53.286;8.534;2024-01-16T02:01:24;0.50;;;0.50;;
13943;SDS011;7044;53.286;8.534;2024-01-16T02:03:55;0.53;;;0.43;;
13943;SDS011;7044;53.286;8.534;2024-01-16T02:06:24;3.60;;;0.40;;
13943;SDS011;7044;53.286;8.534;2024-01-16T02:08:50;0.10;;;0.10;;
13943;SDS011;7044;53.286;8.534;2024-01-16T02:11:17;0.93;;;0.30;;
13943;SDS011;7044;53.286;8.534;2024-01-16T02:13:44;0.87;;;0.50;;
13943;SDS011;7044;53.286;8.534;2024-01-16T02:16:18;1.03;;;0.40;;
13943;SDS011;7044;53.286;8.534;2024-01-16T02:18:46;2.10;;;0.40;;
13943;SDS011;7044;53.286;8.534;2024-01-16T02:21:15;0.90;;;0.50;;
13943;SDS011;7044;53.286;8.534;2024-01-16T02:23:45;3.90;;;0.70;;
13943;SDS011;7044;53.286;8.534;2024-01-16T02:26:12;4.23;;;0.60;;
13943;SDS011;7044;53.286;8.534;2024-01-16T02:28:40;2.43;;;0.87;;
13943;SDS011;7044;53.286;8.534;2024-01-16T02:31:07;0.80;;;0.70;;
13943;SDS011;7044;53.286;8.534;2024-01-16T02:33:34;3.30;;;0.87;;
13943;SDS011;7044;53.286;8.534;2024-01-16T02:36:00;1.13;;;0.53;;
13943;SDS011;7044;53.286;8.534;2024-01-16T02:38:27;3.53;;;0.70;;
13943;SDS011;7044;53.286;8.534;2024-01-16T02:40:56;1.80;;;0.87;;
13943;SDS011;7044;53.286;8.534;2024-01-16T02:43:23;0.20;;;0.20;;
13943;SDS011;7044;53.286;8.534;2024-01-16T02:45:51;0.30;;;0.30;;
13943;SDS011;7044;53.286;8.534;2024-01-16T02:48:18;0.47;;;0.40;;
13943;SDS011;7044;53.286;8.534;2024-01-16T02:50:45;0.60;;;0.50;;
13943;SDS011;7044;53.286;8.534;2024-01-16T02:53:13;3.60;;;0.83;;
13943;SDS011;7044;53.286;8.534;2024-01-16T02:55:40;2.53;;;0.53;;
13943;SDS011;7044;53.286;8.534;2024-01-16T02:58:08;1.53;;;0.70;;
13943;SDS011;7044;53.286;8.534;2024-01-16T03:00:35;1.53;;;0.70;;
13943;SDS011;7044;53.286;8.534;2024-01-16T03:03:02;4.30;;;0.90;;
13943;SDS011;7044;53.286;8.534;2024-01-16T03:05:30;1.50;;;0.67;;
13943;SDS011;7044;53.286;8.534;2024-01-16T03:07:57;3.77;;;0.77;;
13943;SDS011;7044;53.286;8.534;2024-01-16T03:10:23;1.00;;;0.60;;
13943;SDS011;7044;53.286;8.534;2024-01-16T03:12:50;1.93;;;0.60;;
13943;SDS011;7044;53.286;8.534;2024-01-16T03:15:19;3.93;;;0.70;;
13943;SDS011;7044;53.286;8.534;2024-01-16T03:17:47;3.00;;;0.97;;
13943;SDS011;7044;53.286;8.534;2024-01-16T03:20:13;3.90;;;0.70;;
13943;SDS011;7044;53.286;8.534;2024-01-16T03:22:40;3.33;;;1.10;;
13943;SDS011;7044;53.286;8.534;2024-01-16T03:25:08;3.50;;;0.80;;
13943;SDS011;7044;53.286;8.534;2024-01-16T03:27:37;7.80;;;0.87;;
13943;SDS011;7044;53.286;8.534;2024-01-16T03:30:04;6.77;;;1.20;;
13943;SDS011;7044;53.286;8.534;2024-01-16T03:32:34;0.70;;;0.53;;
13943;SDS011;7044;53.286;8.534;2024-01-16T03:35:01;0.63;;;0.60;;
13943;SDS011;7044;53.286;8.534;2024-01-16T03:37:28;3.83;;;1.33;;
13943;SDS011;7044;53.286;8.534;2024-01-16T03:39:55;0.70;;;0.70;;
13943;SDS011;7044;53.286;8.534;2024-01-16T03:42:23;3.10;;;0.67;;
13943;SDS011;7044;53.286;8.534;2024-01-16T03:44:50;0.73;;;0.70;;
13943;SDS011;7044;53.286;8.534;2024-01-16T03:47:17;3.47;;;0.90;;
13943;SDS011;7044;53.286;8.534;2024-01-16T03:49:45;2.60;;;0.63;;
13943;SDS011;7044;53.286;8.534;2024-01-16T03:52:12;2.83;;;0.93;;
13943;SDS011;7044;53.286;8.534;2024-01-16T03:54:39;0.70;;;0.50;;
13943;SDS011;7044;53.286;8.534;2024-01-16T03:57:06;3.30;;;1.07;;
13943;SDS011;7044;53.286;8.534;2024-01-16T03:59:36;1.73;;;0.60;;
13943;SDS011;7044;53.286;8.534;2024-01-16T04:02:03;3.90;;;0.87;;
13943;SDS011;7044;53.286;8.534;2024-01-16T04:04:30;1.27;;;0.77;;
13943;SDS011;7044;53.286;8.534;2024-01-16T04:06:58;1.43;;;0.80;;
13943;SDS011;7044;53.286;8.534;2024-01-16T04:09:25;5.87;;;0.83;;
13943;SDS011;7044;53.286;8.534;2024-01-16T04:11:52;8.23;;;1.20;;
13943;SDS011;7044;53.286;8.534;2024-01-16T04:14:18;2.33;;;0.80;;
13943;SDS011;7044;53.286;8.534;2024-01-16T04:16:46;0.43;;;0.43;;
13943;SDS011;7044;53.286;8.534;2024-01-16T04:19:13;3.80;;;0.90;;
13943;SDS011;7044;53.286;8.534;2024-01-16T04:21:40;4.37;;;0.93;;
13943;SDS011;7044;53.286;8.534;2024-01-16T04:24:08;1.73;;;0.77;;
13943;SDS011;7044;53.286;8.534;2024-01-16T04:26:35;0.73;;;0.73;;
13943;SDS011;7044;53.286;8.534;2024-01-16T04:29:03;5.40;;;1.07;;
13943;SDS011;7044;53.286;8.534;2024-01-16T04:31:30;5.10;;;0.50;;
13943;SDS011;7044;53.286;8.534;2024-01-16T04:33:57;1.00;;;0.73;;
13943;SDS011;7044;53.286;8.534;2024-01-16T04:36:24;0.40;;;0.40;;
13943;SDS011;7044;53.286;8.534;2024-01-16T04:38:51;5.50;;;0.70;;
13943;SDS011;7044;53.286;8.534;2024-01-16T04:41:19;2.87;;;0.53;;
13943;SDS011;7044;53.286;8.534;2024-01-16T04:43:46;5.20;;;0.90;;
13943;SDS011;7044;53.286;8.534;2024-01-16T04:46:14;1.90;;;0.80;;
13943;SDS011;7044;53.286;8.534;2024-01-16T04:48:41;1.33;;;0.73;;
13943;SDS011;7044;53.286;8.534;2024-01-16T04:51:08;1.60;;;0.50;;
13943;SDS011;7044;53.286;8.534;2024-01-16T04:53:34;0.80;;;0.70;;
13943;SDS011;7044;53.286;8.534;2024-01-16T04:56:01;4.50;;;0.60;;
13943;SDS011;7044;53.286;8.534;2024-01-16T04:58:29;1.03;;;0.50;;
13943;SDS011;7044;53.286;8.534;2024-01-16T05:00:56;2.30;;;0.73;;
13943;SDS011;7044;53.286;8.534;2024-01-16T05:03:23;0.90;;;0.47;;
13943;SDS011;7044;53.286;8.534;2024-01-16T05:05:50;3.87;;;0.70;;
13943;SDS011;7044;53.286;8.534;2024-01-16T05:08:17;3.30;;;0.93;;
13943;SDS011;7044;53.286;8.534;2024-01-16T05:10:44;1.07;;;0.40;;
13943;SDS011;7044;53.286;8.534;2024-01-16T05:13:10;1.37;;;0.60;;
13943;SDS011;7044;53.286;8.534;2024-01-16T05:15:39;4.23;;;0.93;;
13943;SDS011;7044;53.286;8.534;2024-01-16T05:18:07;4.80;;;0.83;;
13943;SDS011;7044;53.286;8.534;2024-01-16T05:20:34;3.30;;;0.80;;
13943;SDS011;7044;53.286;8.534;2024-01-16T05:23:01;1.07;;;0.80;;
13943;SDS011;7044;53.286;8.534;2024-01-16T05:25:28;1.03;;;0.53;;
13943;SDS011;7044;53.286;8.534;2024-01-16T05:27:55;3.30;;;1.07;;
13943;SDS011;7044;53.286;8.534;2024-01-16T05:30:21;1.93;;;0.57;;
13943;SDS011;7044;53.286;8.534;2024-01-16T05:32:50;1.63;;;1.00;;
13943;SDS011;7044;53.286;8.534;2024-01-16T05:35:17;2.53;;;0.57;;
13943;SDS011;7044;53.286;8.534;2024-01-16T05:37:44;5.33;;;1.07;;
13943;SDS011;7044;53.286;8.534;2024-01-16T05:40:11;2.97;;;0.77;;
13943;SDS011;7044;53.286;8.534;2024-01-16T05:42:38;1.43;;;0.60;;
13943;SDS011;7044;53.286;8.534;2024-01-16T05:45:05;3.30;;;0.60;;
13943;SDS011;7044;53.286;8.534;2024-01-16T05:47:33;2.13;;;1.17;;
13943;SDS011;7044;53.286;8.534;2024-01-16T05:50:01;3.80;;;1.00;;
13943;SDS011;7044;53.286;8.534;2024-01-16T05:52:29;0.83;;;0.77;;
13943;SDS011;7044;53.286;8.534;2024-01-16T05:54:56;2.57;;;0.83;;
13943;SDS011;7044;53.286;8.534;2024-01-16T05:57:24;2.63;;;0.90;;
13943;SDS011;7044;53.286;8.534;2024-01-16T05:59:51;2.57;;;0.60;;
13943;SDS011;7044;53.286;8.534;2024-01-16T06:02:18;3.33;;;1.27;;
13943;SDS011;7044;53.286;8.534;2024-01-16T06:04:45;2.63;;;1.00;;
13943;SDS011;7044;53.286;8.534;2024-01-16T06:07:13;1.17;;;1.07;;
13943;SDS011;7044;53.286;8.534;2024-01-16T06:09:40;2.20;;;1.17;;
13943;SDS011;7044;53.286;8.534;2024-01-16T06:12:07;5.37;;;0.87;;
13943;SDS011;7044;53.286;8.534;2024-01-16T06:14:34;2.50;;;0.70;;
13943;SDS011;7044;53.286;8.534;2024-01-16T06:17:01;2.07;;;1.00;;
13943;SDS011;7044;53.286;8.534;2024-01-16T06:19:30;2.00;;;0.67;;
13943;SDS011;7044;53.286;8.534;2024-01-16T06:21:57;2.40;;;0.83;;
13943;SDS011;7044;53.286;8.534;2024-01-16T06:24:26;8.83;;;1.10;;
13943;SDS011;7044;53.286;8.534;2024-01-16T06:26:53;1.80;;;0.80;;
13943;SDS011;7044;53.286;8.534;2024-01-16T06:29:19;1.93;;;0.80;;
13943;SDS011;7044;53.286;8.534;2024-01-16T06:31:46;1.13;;;0.77;;
13943;SDS011;7044;53.286;8.534;2024-01-16T06:34:14;2.70;;;1.00;;
13943;SDS011;7044;53.286;8.534;2024-01-16T06:36:41;11.20;;;1.60;;
13943;SDS011;7044;53.286;8.534;2024-01-16T06:39:08;1.30;;;0.83;;
13943;SDS011;7044;53.286;8.534;2024-01-16T06:41:40;5.60;;;1.00;;
13943;SDS011;7044;53.286;8.534;2024-01-16T06:44:07;4.50;;;0.70;;
13943;SDS011;7044;53.286;8.534;2024-01-16T06:46:33;1.00;;;0.80;;
13943;SDS011;7044;53.286;8.534;2024-01-16T06:49:00;1.80;;;0.80;;
13943;SDS011;7044;53.286;8.534;2024-01-16T06:51:28;3.97;;;1.10;;
13943;SDS011;7044;53.286;8.534;2024-01-16T06:53:55;0.53;;;0.53;;
13943;SDS011;7044;53.286;8.534;2024-01-16T06:56:22;1.93;;;1.10;;
13943;SDS011;7044;53.286;8.534;2024-01-16T06:58:50;3.47;;;1.27;;
13943;SDS011;7044;53.286;8.534;2024-01-16T07:01:17;3.83;;;1.20;;
13943;SDS011;7044;53.286;8.534;2024-01-16T07:03:44;2.17;;;1.20;;
13943;SDS011;7044;53.286;8.534;2024-01-16T07:06:11;4.17;;;1.60;;
13943;SDS011;7044;53.286;8.534;2024-01-16T07:08:40;3.90;;;1.40;;
13943;SDS011;7044;53.286;8.534;2024-01-16T07:11:07;2.43;;;0.90;;
13943;SDS011;7044;53.286;8.534;2024-01-16T07:13:37;4.17;;;1.33;;
13943;SDS011;7044;53.286;8.534;2024-01-16T07:16:06;3.07;;;1.13;;
13943;SDS011;7044;53.286;8.534;2024-01-16T07:18:35;6.97;;;1.93;;
13943;SDS011;7044;53.286;8.534;2024-01-16T07:21:02;6.00;;;2.03;;
13943;SDS011;7044;53.286;8.534;2024-01-16T07:23:29;1.83;;;1.30;;
13943;SDS011;7044;53.286;8.534;2024-01-16T07:25:56;2.47;;;1.20;;
13943;SDS011;7044;53.286;8.534;2024-01-16T07:28:23;1.30;;;1.00;;
13943;SDS011;7044;53.286;8.534;2024-01-16T07:30:52;2.43;;;1.10;;
13943;SDS011;7044;53.286;8.534;2024-01-16T07:33:21;6.53;;;1.67;;
13943;SDS011;7044;53.286;8.534;2024-01-16T07:35:48;2.30;;;1.40;;
13943;SDS011;7044;53.286;8.534;2024-01-16T07:38:14;4.40;;;1.70;;
13943;SDS011;7044;53.286;8.534;2024-01-16T07:40:41;5.57;;;2.33;;
13943;SDS011;7044;53.286;8.534;2024-01-16T07:43:08;6.23;;;2.43;;
13943;SDS011;7044;53.286;8.534;2024-01-16T07:45:35;2.20;;;1.17;;
13943;SDS011;7044;53.286;8.534;2024-01-16T07:48:02;2.47;;;1.20;;
13943;SDS011;7044;53.286;8.534;2024-01-16T07:50:31;4.77;;;1.20;;
13943;SDS011;7044;53.286;8.534;2024-01-16T07:52:58;3.93;;;1.13;;
13943;SDS011;7044;53.286;8.534;2024-01-16T07:55:25;2.17;;;0.87;;
13943;SDS011;7044;53.286;8.534;2024-01-16T07:57:53;3.50;;;1.10;;
13943;SDS011;7044;53.286;8.534;2024-01-16T08:00:20;5.70;;;1.30;;
13943;SDS011;7044;53.286;8.534;2024-01-16T08:02:47;1.20;;;1.07;;
13943;SDS011;7044;53.286;8.534;2024-01-16T08:05:14;5.90;;;1.77;;
13943;SDS011;7044;53.286;8.534;2024-01-16T08:07:43;5.60;;;2.73;;
13943;SDS011;7044;53.286;8.534;2024-01-16T08:10:10;6.60;;;2.53;;
13943;SDS011;7044;53.286;8.534;2024-01-16T08:12:37;5.50;;;1.93;;
13943;SDS011;7044;53.286;8.534;2024-01-16T08:15:04;5.40;;;1.37;;
13943;SDS011;7044;53.286;8.534;2024-01-16T08:17:32;4.13;;;1.20;;
13943;SDS011;7044;53.286;8.534;2024-01-16T08:19:59;2.13;;;1.00;;
13943;SDS011;7044;53.286;8.534;2024-01-16T08:22:26;6.07;;;1.13;;
13943;SDS011;7044;53.286;8.534;2024-01-16T08:24:54;1.43;;;0.97;;
13943;SDS011;7044;53.286;8.534;2024-01-16T08:27:21;6.43;;;1.53;;
13943;SDS011;7044;53.286;8.534;2024-01-16T08:29:48;1.70;;;1.00;;
13943;SDS011;7044;53.286;8.534;2024-01-16T08:32:15;5.17;;;1.03;;
13943;SDS011;7044;53.286;8.534;2024-01-16T08:34:42;3.87;;;0.67;;
13943;SDS011;7044;53.286;8.534;2024-01-16T08:37:09;1.87;;;0.90;;
13943;SDS011;7044;53.286;8.534;2024-01-16T08:39:35;3.80;;;0.90;;
13943;SDS011;7044;53.286;8.534;2024-01-16T08:42:04;2.70;;;1.10;;
13943;SDS011;7044;53.286;8.534;2024-01-16T08:44:31;7.53;;;1.10;;
13943;SDS011;7044;53.286;8.534;2024-01-16T08:46:58;4.90;;;1.07;;
13943;SDS011;7044;53.286;8.534;2024-01-16T08:49:27;4.13;;;1.37;;
13943;SDS011;7044;53.286;8.534;2024-01-16T08:51:54;1.90;;;0.87;;
13943;SDS011;7044;53.286;8.534;2024-01-16T08:54:21;4.37;;;1.17;;
13943;SDS011;7044;53.286;8.534;2024-01-16T08:56:48;7.23;;;1.33;;
13943;SDS011;7044;53.286;8.534;2024-01-16T08:59:17;3.90;;;1.20;;
13943;SDS011;7044;53.286;8.534;2024-01-16T09:01:43;3.57;;;1.63;;
13943;SDS011;7044;53.286;8.534;2024-01-16T09:04:10;9.27;;;1.97;;
13943;SDS011;7044;53.286;8.534;2024-01-16T09:06:37;3.40;;;1.20;;
13943;SDS011;7044;53.286;8.534;2024-01-16T09:09:04;5.27;;;1.10;;
13943;SDS011;7044;53.286;8.534;2024-01-16T09:11:31;3.87;;;1.30;;
13943;SDS011;7044;53.286;8.534;2024-01-16T09:13:58;1.53;;;1.00;;
13943;SDS011;7044;53.286;8.534;2024-01-16T09:16:27;3.10;;;1.47;;
13943;SDS011;7044;53.286;8.534;2024-01-16T09:18:53;5.77;;;1.03;;
13943;SDS011;7044;53.286;8.534;2024-01-16T09:21:20;3.20;;;1.20;;
13943;SDS011;7044;53.286;8.534;2024-01-16T09:23:47;11.37;;;2.10;;
13943;SDS011;7044;53.286;8.534;2024-01-16T09:26:14;6.97;;;1.07;;
13943;SDS011;7044;53.286;8.534;2024-01-16T09:28:42;5.23;;;1.07;;
13943;SDS011;7044;53.286;8.534;2024-01-16T09:31:09;3.17;;;1.50;;
13943;SDS011;7044;53.286;8.534;2024-01-16T09:33:37;8.13;;;1.07;;
13943;SDS011;7044;53.286;8.534;2024-01-16T09:36:04;6.07;;;1.30;;
13943;SDS011;7044;53.286;8.534;2024-01-16T09:38:32;2.53;;;1.50;;
13943;SDS011;7044;53.286;8.534;2024-01-16T09:40:58;3.00;;;1.10;;
13943;SDS011;7044;53.286;8.534;2024-01-16T09:43:28;4.13;;;1.67;;
13943;SDS011;7044;53.286;8.534;2024-01-16T09:45:56;3.03;;;1.33;;
13943;SDS011;7044;53.286;8.534;2024-01-16T09:48:27;2.70;;;1.13;;
13943;SDS011;7044;53.286;8.534;2024-01-16T09:50:56;1.97;;;1.20;;
13943;SDS011;7044;53.286;8.534;2024-01-16T09:53:23;1.90;;;0.83;;
13943;SDS011;7044;53.286;8.534;2024-01-16T09:55:50;3.00;;;1.10;;
13943;SDS011;7044;53.286;8.534;2024-01-16T09:58:20;2.87;;;1.27;;
13943;SDS011;7044;53.286;8.534;2024-01-16T10:00:47;1.60;;;1.27;;
13943;SDS011;7044;53.286;8.534;2024-01-16T10:03:14;2.83;;;1.10;;
13943;SDS011;7044;53.286;8.534;2024-01-16T10:05:42;3.40;;;1.07;;
13943;SDS011;7044;53.286;8.534;2024-01-16T10:08:12;5.70;;;2.67;;
13943;SDS011;7044;53.286;8.534;2024-01-16T10:10:39;2.87;;;1.87;;
13943;SDS011;7044;53.286;8.534;2024-01-16T10:13:05;5.70;;;1.93;;
13943;SDS011;7044;53.286;8.534;2024-01-16T10:15:33;1.83;;;1.10;;
13943;SDS011;7044;53.286;8.534;2024-01-16T10:18:00;5.13;;;1.23;;
13943;SDS011;7044;53.286;8.534;2024-01-16T10:20:33;2.70;;;1.50;;
13943;SDS011;7044;53.286;8.534;2024-01-16T10:23:01;6.83;;;1.77;;
13943;SDS011;7044;53.286;8.534;2024-01-16T10:25:31;3.10;;;1.33;;
13943;SDS011;7044;53.286;8.534;2024-01-16T10:28:02;5.20;;;1.50;;
13943;SDS011;7044;53.286;8.534;2024-01-16T10:30:32;3.83;;;1.67;;
13943;SDS011;7044;53.286;8.534;2024-01-16T10:33:11;1.47;;;1.10;;
13943;SDS011;7044;53.286;8.534;2024-01-16T10:35:41;2.97;;;1.23;;
13943;SDS011;7044;53.286;8.534;2024-01-16T10:38:08;2.10;;;1.30;;
13943;SDS011;7044;53.286;8.534;2024-01-16T10:40:36;4.17;;;1.40;;
13943;SDS011;7044;53.286;8.534;2024-01-16T10:43:03;4.60;;;1.67;;
13943;SDS011;7044;53.286;8.534;2024-01-16T10:45:31;4.20;;;1.87;;
13943;SDS011;7044;53.286;8.534;2024-01-16T10:48:01;4.83;;;1.53;;
13943;SDS011;7044;53.286;8.534;2024-01-16T10:50:29;3.07;;;2.27;;
13943;SDS011;7044;53.286;8.534;2024-01-16T10:52:56;6.20;;;2.53;;
13943;SDS011;7044;53.286;8.534;2024-01-16T10:55:26;9.73;;;2.67;;
13943;SDS011;7044;53.286;8.534;2024-01-16T10:57:56;4.63;;;1.80;;
13943;SDS011;7044;53.286;8.534;2024-01-16T11:00:24;8.17;;;2.30;;
13943;SDS011;7044;53.286;8.534;2024-01-16T11:02:53;8.97;;;2.17;;
13943;SDS011;7044;53.286;8.534;2024-01-16T11:05:26;5.97;;;1.87;;
13943;SDS011;7044;53.286;8.534;2024-01-16T11:07:56;3.77;;;2.10;;
13943;SDS011;7044;53.286;8.534;2024-01-16T11:10:27;7.63;;;2.40;;
13943;SDS011;7044;53.286;8.534;2024-01-16T11:12:56;10.37;;;1.87;;
13943;SDS011;7044;53.286;8.534;2024-01-16T11:15:27;8.77;;;2.07;;
13943;SDS011;7044;53.286;8.534;2024-01-16T11:17:54;1.53;;;1.33;;
13943;SDS011;7044;53.286;8.534;2024-01-16T11:20:22;3.87;;;2.20;;
13943;SDS011;7044;53.286;8.534;2024-01-16T11:22:50;6.13;;;2.20;;
13943;SDS011;7044;53.286;8.534;2024-01-16T11:25:20;5.63;;;1.87;;
13943;SDS011;7044;53.286;8.534;2024-01-16T11:27:57;6.10;;;2.53;;
13943;SDS011;7044;53.286;8.534;2024-01-16T11:30:34;7.47;;;2.10;;
13943;SDS011;7044;53.286;8.534;2024-01-16T11:33:01;7.20;;;2.30;;
13943;SDS011;7044;53.286;8.534;2024-01-16T11:35:33;4.27;;;2.43;;
13943;SDS011;7044;53.286;8.534;2024-01-16T11:38:05;4.83;;;2.20;;
13943;SDS011;7044;53.286;8.534;2024-01-16T11:40:34;4.57;;;2.00;;
13943;SDS011;7044;53.286;8.534;2024-01-16T11:46:03;6.07;;;2.23;;
13943;SDS011;7044;53.286;8.534;2024-01-16T11:48:31;5.50;;;2.00;;
13943;SDS011;7044;53.286;8.534;2024-01-16T11:50:58;4.30;;;2.23;;
13943;SDS011;7044;53.286;8.534;2024-01-16T11:53:31;5.17;;;2.43;;
13943;SDS011;7044;53.286;8.534;2024-01-16T11:56:13;6.20;;;2.13;;
13943;SDS011;7044;53.286;8.534;2024-01-16T11:59:05;2.07;;;1.53;;
13943;SDS011;7044;53.286;8.534;2024-01-16T12:01:45;6.57;;;1.60;;
13943;SDS011;7044;53.286;8.534;2024-01-16T12:04:12;3.40;;;1.70;;
13943;SDS011;7044;53.286;8.534;2024-01-16T12:06:43;4.53;;;2.37;;
13943;SDS011;7044;53.286;8.534;2024-01-16T12:09:12;11.13;;;2.20;;
13943;SDS011;7044;53.286;8.534;2024-01-16T12:11:40;4.23;;;2.13;;
13943;SDS011;7044;53.286;8.534;2024-01-16T12:14:10;5.37;;;2.27;;
13943;SDS011;7044;53.286;8.534;2024-01-16T12:16:37;3.97;;;2.13;;
13943;SDS011;7044;53.286;8.534;2024-01-16T12:19:04;6.40;;;2.50;;
13943;SDS011;7044;53.286;8.534;2024-01-16T12:21:33;4.03;;;2.10;;
13943;SDS011;7044;53.286;8.534;2024-01-16T12:24:00;3.83;;;2.17;;
13943;SDS011;7044;53.286;8.534;2024-01-16T12:26:28;3.40;;;2.57;;
13943;SDS011;7044;53.286;8.534;2024-01-16T12:28:57;5.17;;;3.70;;
13943;SDS011;7044;53.286;8.534;2024-01-16T12:31:25;9.27;;;2.40;;
13943;SDS011;7044;53.286;8.534;2024-01-16T12:33:54;2.77;;;2.20;;
13943;SDS011;7044;53.286;8.534;2024-01-16T12:36:21;3.77;;;1.90;;
13943;SDS011;7044;53.286;8.534;2024-01-16T12:38:53;6.23;;;2.07;;
13943;SDS011;7044;53.286;8.534;2024-01-16T12:41:21;8.33;;;2.10;;
13943;SDS011;7044;53.286;8.534;2024-01-16T12:43:50;5.40;;;2.30;;
13943;SDS011;7044;53.286;8.534;2024-01-16T12:46:17;2.63;;;2.07;;
13943;SDS011;7044;53.286;8.534;2024-01-16T12:48:46;3.57;;;1.90;;
13943;SDS011;7044;53.286;8.534;2024-01-16T12:51:20;5.30;;;2.17;;
13943;SDS011;7044;53.286;8.534;2024-01-16T12:53:47;5.93;;;2.37;;
13943;SDS011;7044;53.286;8.534;2024-01-16T12:56:17;5.50;;;2.03;;
13943;SDS011;7044;53.286;8.534;2024-01-16T12:58:44;4.43;;;2.60;;
13943;SDS011;7044;53.286;8.534;2024-01-16T13:01:21;3.03;;;1.93;;
13943;SDS011;7044;53.286;8.534;2024-01-16T13:03:50;3.53;;;2.60;;
13943;SDS011;7044;53.286;8.534;2024-01-16T13:06:19;5.73;;;2.40;;
13943;SDS011;7044;53.286;8.534;2024-01-16T13:08:46;6.93;;;2.93;;
13943;SDS011;7044;53.286;8.534;2024-01-16T13:11:13;3.97;;;2.13;;
13943;SDS011;7044;53.286;8.534;2024-01-16T13:13:45;3.77;;;2.80;;
13943;SDS011;7044;53.286;8.534;2024-01-16T13:16:13;6.00;;;2.63;;
13943;SDS011;7044;53.286;8.534;2024-01-16T13:18:40;9.97;;;3.30;;
13943;SDS011;7044;53.286;8.534;2024-01-16T13:21:09;8.43;;;3.30;;
13943;SDS011;7044;53.286;8.534;2024-01-16T13:23:35;6.97;;;2.73;;
13943;SDS011;7044;53.286;8.534;2024-01-16T13:26:02;3.30;;;2.47;;
13943;SDS011;7044;53.286;8.534;2024-01-16T13:28:29;10.70;;;3.03;;
13943;SDS011;7044;53.286;8.534;2024-01-16T13:30:57;6.40;;;2.57;;
13943;SDS011;7044;53.286;8.534;2024-01-16T13:33:24;8.03;;;2.93;;
13943;SDS011;7044;53.286;8.534;2024-01-16T13:35:52;5.57;;;2.77;;
13943;SDS011;7044;53.286;8.534;2024-01-16T13:38:21;3.20;;;2.47;;
13943;SDS011;7044;53.286;8.534;2024-01-16T13:40:48;9.27;;;2.83;;
13943;SDS011;7044;53.286;8.534;2024-01-16T13:43:16;3.67;;;2.33;;
13943;SDS011;7044;53.286;8.534;2024-01-16T13:45:43;4.73;;;2.63;;
13943;SDS011;7044;53.286;8.534;2024-01-16T13:48:14;7.03;;;2.70;;
13943;SDS011;7044;53.286;8.534;2024-01-16T13:50:41;4.00;;;2.57;;
13943;SDS011;7044;53.286;8.534;2024-01-16T13:53:09;5.17;;;2.70;;
13943;SDS011;7044;53.286;8.534;2024-01-16T13:55:39;5.73;;;2.73;;
13943;SDS011;7044;53.286;8.534;2024-01-16T13:58:07;4.37;;;2.63;;
13943;SDS011;7044;53.286;8.534;2024-01-16T14:00:34;5.03;;;3.00;;
13943;SDS011;7044;53.286;8.534;2024-01-16T14:03:00;8.90;;;2.97;;
13943;SDS011;7044;53.286;8.534;2024-01-16T14:05:28;6.23;;;2.97;;
13943;SDS011;7044;53.286;8.534;2024-01-16T14:07:55;5.43;;;2.63;;
13943;SDS011;7044;53.286;8.534;2024-01-16T14:10:22;3.27;;;2.43;;
13943;SDS011;7044;53.286;8.534;2024-01-16T14:12:51;3.67;;;2.73;;
13943;SDS011;7044;53.286;8.534;2024-01-16T14:15:19;4.37;;;2.73;;
13943;SDS011;7044;53.286;8.534;2024-01-16T14:17:49;4.27;;;2.50;;
13943;SDS011;7044;53.286;8.534;2024-01-16T14:20:17;3.63;;;2.37;;
13943;SDS011;7044;53.286;8.534;2024-01-16T14:22:48;5.00;;;2.53;;
13943;SDS011;7044;53.286;8.534;2024-01-16T14:25:14;3.67;;;2.20;;
13943;SDS011;7044;53.286;8.534;2024-01-16T14:27:44;3.63;;;2.37;;
13943;SDS011;7044;53.286;8.534;2024-01-16T14:30:13;3.43;;;2.93;;
13943;SDS011;7044;53.286;8.534;2024-01-16T14:32:41;2.73;;;2.10;;
13943;SDS011;7044;53.286;8.534;2024-01-16T14:35:09;4.03;;;2.60;;
13943;SDS011;7044;53.286;8.534;2024-01-16T14:37:38;4.93;;;2.70;;
13943;SDS011;7044;53.286;8.534;2024-01-16T14:40:06;3.50;;;2.47;;
13943;SDS011;7044;53.286;8.534;2024-01-16T14:42:37;5.20;;;2.93;;
13943;SDS011;7044;53.286;8.534;2024-01-16T14:45:05;6.00;;;2.10;;
13943;SDS011;7044;53.286;8.534;2024-01-16T14:47:34;3.60;;;2.23;;
13943;SDS011;7044;53.286;8.534;2024-01-16T14:50:00;5.00;;;2.40;;
13943;SDS011;7044;53.286;8.534;2024-01-16T14:52:28;3.73;;;2.70;;
13943;SDS011;7044;53.286;8.534;2024-01-16T14:54:57;3.87;;;2.37;;
13943;SDS011;7044;53.286;8.534;2024-01-16T14:57:24;4.17;;;2.80;;
13943;SDS011;7044;53.286;8.534;2024-01-16T14:59:52;4.50;;;2.30;;
13943;SDS011;7044;53.286;8.534;2024-01-16T15:02:19;3.50;;;2.47;;
13943;SDS011;7044;53.286;8.534;2024-01-16T15:04:47;4.17;;;2.70;;
13943;SDS011;7044;53.286;8.534;2024-01-16T15:07:14;7.33;;;2.60;;